sensor_id;sensor_type;location;lat;lon;timestamp;P1;durP1;ratioP1;P2;durP2;ratioP2
30335;SDS011;17142;47.990;7.846;2023-11-18T00:01:31;9.10;;;5.40;;
30335;SDS011;17142;47.990;7.846;2023-11-18T00:04:00;7.10;;;5.73;;
30335;SDS011;17142;47.990;7.846;2023-11-18T00:06:26;6.30;;;5.70;;
30335;SDS011;17142;47.990;7.846;2023-11-18T00:08:51;5.60;;;4.00;;
30335;SDS011;17142;47.990;7.846;2023-11-18T00:11:17;5.87;;;4.70;;
30335;SDS011;17142;47.990;7.846;2023-11-18T00:13:43;5.33;;;4.60;;
30335;SDS011;17142;47.990;7.846;2023-11-18T00:16:09;6.50;;;4.67;;
30335;SDS011;17142;47.990;7.846;2023-11-18T00:18:40;7.60;;;5.00;;
30335;SDS011;17142;47.990;7.846;2023-11-18T00:21:06;8.87;;;4.90;;
30335;SDS011;17142;47.990;7.846;2023-11-18T00:23:34;8.03;;;4.43;;
30335;SDS011;17142;47.990;7.846;2023-11-18T00:26:00;7.93;;;6.27;;
30335;SDS011;17142;47.990;7.846;2023-11-18T00:28:26;7.90;;;6.10;;
30335;SDS011;17142;47.990;7.846;2023-11-18T00:30:54;6.60;;;4.97;;
30335;SDS011;17142;47.990;7.846;2023-11-18T00:33:23;7.00;;;6.30;;
30335;SDS011;17142;47.990;7.846;2023-11-18T00:35:48;5.23;;;4.70;;
30335;SDS011;17142;47.990;7.846;2023-11-18T00:38:16;6.83;;;5.17;;
30335;SDS011;17142;47.990;7.846;2023-11-18T00:40:44;4.20;;;3.43;;
30335;SDS011;17142;47.990;7.846;2023-11-18T00:43:10;7.47;;;5.97;;
30335;SDS011;17142;47.990;7.846;2023-11-18T00:45:36;5.73;;;4.77;;
30335;SDS011;17142;47.990;7.846;2023-11-18T00:48:01;8.20;;;5.63;;
30335;SDS011;17142;47.990;7.846;2023-11-18T00:50:29;11.53;;;5.10;;
30335;SDS011;17142;47.990;7.846;2023-11-18T00:52:55;6.40;;;4.70;;
30335;SDS011;17142;47.990;7.846;2023-11-18T00:55:20;5.80;;;4.10;;
30335;SDS011;17142;47.990;7.846;2023-11-18T00:57:46;4.70;;;3.47;;
30335;SDS011;17142;47.990;7.846;2023-11-18T01:00:13;5.97;;;3.90;;
30335;SDS011;17142;47.990;7.846;2023-11-18T01:02:40;5.33;;;3.67;;
30335;SDS011;17142;47.990;7.846;2023-11-18T01:05:06;5.57;;;4.40;;
30335;SDS011;17142;47.990;7.846;2023-11-18T01:07:34;4.60;;;3.10;;
30335;SDS011;17142;47.990;7.846;2023-11-18T01:10:02;4.80;;;2.77;;
30335;SDS011;17142;47.990;7.846;2023-11-18T01:12:28;6.50;;;3.13;;
30335;SDS011;17142;47.990;7.846;2023-11-18T01:14:56;6.60;;;4.53;;
30335;SDS011;17142;47.990;7.846;2023-11-18T01:17:24;4.30;;;3.53;;
30335;SDS011;17142;47.990;7.846;2023-11-18T01:19:50;7.47;;;3.70;;
30335;SDS011;17142;47.990;7.846;2023-11-18T01:22:16;6.27;;;4.13;;
30335;SDS011;17142;47.990;7.846;2023-11-18T01:24:43;4.20;;;2.80;;
30335;SDS011;17142;47.990;7.846;2023-11-18T01:27:09;7.63;;;3.77;;
30335;SDS011;17142;47.990;7.846;2023-11-18T01:29:40;3.70;;;2.70;;
30335;SDS011;17142;47.990;7.846;2023-11-18T01:32:08;4.63;;;3.60;;
30335;SDS011;17142;47.990;7.846;2023-11-18T01:34:37;6.63;;;4.43;;
30335;SDS011;17142;47.990;7.846;2023-11-18T01:37:07;3.80;;;2.67;;
30335;SDS011;17142;47.990;7.846;2023-11-18T01:39:37;5.63;;;3.27;;
30335;SDS011;17142;47.990;7.846;2023-11-18T01:42:05;3.40;;;2.80;;
30335;SDS011;17142;47.990;7.846;2023-11-18T01:44:31;3.23;;;2.93;;
30335;SDS011;17142;47.990;7.846;2023-11-18T01:46:58;3.20;;;2.90;;
30335;SDS011;17142;47.990;7.846;2023-11-18T01:49:28;3.30;;;3.00;;
30335;SDS011;17142;47.990;7.846;2023-11-18T01:51:54;3.47;;;2.60;;
30335;SDS011;17142;47.990;7.846;2023-11-18T01:54:22;1.23;;;1.00;;
30335;SDS011;17142;47.990;7.846;2023-11-18T01:56:49;2.40;;;2.20;;
30335;SDS011;17142;47.990;7.846;2023-11-18T01:59:15;1.63;;;1.53;;
30335;SDS011;17142;47.990;7.846;2023-11-18T02:01:46;5.07;;;2.20;;
30335;SDS011;17142;47.990;7.846;2023-11-18T02:04:16;3.70;;;2.40;;
30335;SDS011;17142;47.990;7.846;2023-11-18T02:06:44;4.50;;;2.50;;
30335;SDS011;17142;47.990;7.846;2023-11-18T02:09:11;3.90;;;2.30;;
30335;SDS011;17142;47.990;7.846;2023-11-18T02:11:41;3.53;;;2.00;;
30335;SDS011;17142;47.990;7.846;2023-11-18T02:14:29;5.73;;;2.07;;
30335;SDS011;17142;47.990;7.846;2023-11-18T02:16:59;2.00;;;1.90;;
30335;SDS011;17142;47.990;7.846;2023-11-18T02:19:27;2.53;;;2.33;;
30335;SDS011;17142;47.990;7.846;2023-11-18T02:21:55;2.40;;;2.07;;
30335;SDS011;17142;47.990;7.846;2023-11-18T02:24:31;2.57;;;2.27;;
30335;SDS011;17142;47.990;7.846;2023-11-18T02:27:01;2.63;;;2.20;;
30335;SDS011;17142;47.990;7.846;2023-11-18T02:29:37;2.33;;;2.13;;
30335;SDS011;17142;47.990;7.846;2023-11-18T02:34:38;3.27;;;2.50;;
30335;SDS011;17142;47.990;7.846;2023-11-18T02:37:07;4.10;;;2.70;;
30335;SDS011;17142;47.990;7.846;2023-11-18T02:39:43;2.77;;;2.40;;
30335;SDS011;17142;47.990;7.846;2023-11-18T02:42:10;2.13;;;1.90;;
30335;SDS011;17142;47.990;7.846;2023-11-18T02:44:38;5.07;;;2.33;;
30335;SDS011;17142;47.990;7.846;2023-11-18T02:47:06;2.47;;;2.27;;
30335;SDS011;17142;47.990;7.846;2023-11-18T02:49:34;2.70;;;2.17;;
30335;SDS011;17142;47.990;7.846;2023-11-18T02:52:00;1.70;;;1.60;;
30335;SDS011;17142;47.990;7.846;2023-11-18T02:54:25;1.60;;;1.50;;
30335;SDS011;17142;47.990;7.846;2023-11-18T02:56:51;2.30;;;2.10;;
30335;SDS011;17142;47.990;7.846;2023-11-18T02:59:17;2.43;;;2.13;;
30335;SDS011;17142;47.990;7.846;2023-11-18T03:01:44;3.80;;;2.47;;
30335;SDS011;17142;47.990;7.846;2023-11-18T03:04:12;2.77;;;2.57;;
30335;SDS011;17142;47.990;7.846;2023-11-18T03:06:39;3.60;;;2.23;;
30335;SDS011;17142;47.990;7.846;2023-11-18T03:09:07;2.53;;;2.30;;
30335;SDS011;17142;47.990;7.846;2023-11-18T03:11:35;2.40;;;2.20;;
30335;SDS011;17142;47.990;7.846;2023-11-18T03:14:01;2.30;;;2.10;;
30335;SDS011;17142;47.990;7.846;2023-11-18T03:16:29;1.73;;;1.60;;
30335;SDS011;17142;47.990;7.846;2023-11-18T03:18:58;2.30;;;1.83;;
30335;SDS011;17142;47.990;7.846;2023-11-18T03:21:24;1.70;;;1.57;;
30335;SDS011;17142;47.990;7.846;2023-11-18T03:23:51;3.20;;;2.10;;
30335;SDS011;17142;47.990;7.846;2023-11-18T03:26:20;2.70;;;2.33;;
30335;SDS011;17142;47.990;7.846;2023-11-18T03:28:46;3.60;;;2.60;;
30335;SDS011;17142;47.990;7.846;2023-11-18T03:31:12;4.63;;;2.30;;
30335;SDS011;17142;47.990;7.846;2023-11-18T03:33:39;4.20;;;2.00;;
30335;SDS011;17142;47.990;7.846;2023-11-18T03:36:05;5.10;;;2.70;;
30335;SDS011;17142;47.990;7.846;2023-11-18T03:38:31;2.67;;;2.43;;
30335;SDS011;17142;47.990;7.846;2023-11-18T03:40:56;2.37;;;2.10;;
30335;SDS011;17142;47.990;7.846;2023-11-18T03:43:23;2.30;;;2.10;;
30335;SDS011;17142;47.990;7.846;2023-11-18T03:45:48;7.13;;;2.60;;
30335;SDS011;17142;47.990;7.846;2023-11-18T03:48:23;1.60;;;1.50;;
30335;SDS011;17142;47.990;7.846;2023-11-18T03:50:50;1.80;;;1.70;;
30335;SDS011;17142;47.990;7.846;2023-11-18T03:53:18;2.03;;;1.83;;
30335;SDS011;17142;47.990;7.846;2023-11-18T03:55:43;2.43;;;2.23;;
30335;SDS011;17142;47.990;7.846;2023-11-18T03:58:11;1.73;;;1.63;;
30335;SDS011;17142;47.990;7.846;2023-11-18T04:00:39;3.03;;;1.70;;
30335;SDS011;17142;47.990;7.846;2023-11-18T04:03:05;2.80;;;2.20;;
30335;SDS011;17142;47.990;7.846;2023-11-18T04:05:34;3.57;;;2.10;;
30335;SDS011;17142;47.990;7.846;2023-11-18T04:08:00;1.27;;;1.17;;
30335;SDS011;17142;47.990;7.846;2023-11-18T04:10:26;1.33;;;0.93;;
30335;SDS011;17142;47.990;7.846;2023-11-18T04:12:52;1.87;;;1.67;;
30335;SDS011;17142;47.990;7.846;2023-11-18T04:15:17;4.80;;;2.17;;
30335;SDS011;17142;47.990;7.846;2023-11-18T04:17:43;6.37;;;1.83;;
30335;SDS011;17142;47.990;7.846;2023-11-18T04:20:09;3.07;;;2.87;;
30335;SDS011;17142;47.990;7.846;2023-11-18T04:22:44;2.60;;;2.40;;
30335;SDS011;17142;47.990;7.846;2023-11-18T04:25:10;5.10;;;2.90;;
30335;SDS011;17142;47.990;7.846;2023-11-18T04:27:39;5.60;;;2.80;;
30335;SDS011;17142;47.990;7.846;2023-11-18T04:30:08;2.07;;;1.87;;
30335;SDS011;17142;47.990;7.846;2023-11-18T04:32:34;2.13;;;1.77;;
30335;SDS011;17142;47.990;7.846;2023-11-18T04:35:00;2.03;;;1.47;;
30335;SDS011;17142;47.990;7.846;2023-11-18T04:37:34;3.00;;;2.70;;
30335;SDS011;17142;47.990;7.846;2023-11-18T04:40:00;3.83;;;2.13;;
30335;SDS011;17142;47.990;7.846;2023-11-18T04:42:28;3.07;;;2.43;;
30335;SDS011;17142;47.990;7.846;2023-11-18T04:44:55;2.40;;;1.90;;
30335;SDS011;17142;47.990;7.846;2023-11-18T04:47:21;1.97;;;1.70;;
30335;SDS011;17142;47.990;7.846;2023-11-18T04:49:47;2.77;;;2.50;;
30335;SDS011;17142;47.990;7.846;2023-11-18T04:52:15;3.40;;;3.10;;
30335;SDS011;17142;47.990;7.846;2023-11-18T04:54:41;3.57;;;3.27;;
30335;SDS011;17142;47.990;7.846;2023-11-18T04:57:06;3.00;;;2.07;;
30335;SDS011;17142;47.990;7.846;2023-11-18T04:59:34;2.90;;;2.70;;
30335;SDS011;17142;47.990;7.846;2023-11-18T05:02:00;3.53;;;2.33;;
30335;SDS011;17142;47.990;7.846;2023-11-18T05:04:28;3.63;;;2.97;;
30335;SDS011;17142;47.990;7.846;2023-11-18T05:06:54;2.63;;;2.20;;
30335;SDS011;17142;47.990;7.846;2023-11-18T05:09:20;1.50;;;1.13;;
30335;SDS011;17142;47.990;7.846;2023-11-18T05:11:48;3.30;;;3.00;;
30335;SDS011;17142;47.990;7.846;2023-11-18T05:14:13;2.30;;;1.57;;
30335;SDS011;17142;47.990;7.846;2023-11-18T05:16:41;1.60;;;1.20;;
30335;SDS011;17142;47.990;7.846;2023-11-18T05:19:07;1.40;;;1.30;;
30335;SDS011;17142;47.990;7.846;2023-11-18T05:21:37;2.73;;;1.83;;
30335;SDS011;17142;47.990;7.846;2023-11-18T05:24:08;1.93;;;1.47;;
30335;SDS011;17142;47.990;7.846;2023-11-18T05:26:33;1.87;;;1.20;;
30335;SDS011;17142;47.990;7.846;2023-11-18T05:29:01;1.37;;;1.13;;
30335;SDS011;17142;47.990;7.846;2023-11-18T05:31:30;2.40;;;2.07;;
30335;SDS011;17142;47.990;7.846;2023-11-18T05:33:58;1.77;;;1.67;;
30335;SDS011;17142;47.990;7.846;2023-11-18T05:36:23;2.00;;;1.90;;
30335;SDS011;17142;47.990;7.846;2023-11-18T05:38:53;2.40;;;1.90;;
30335;SDS011;17142;47.990;7.846;2023-11-18T05:41:19;1.43;;;1.33;;
30335;SDS011;17142;47.990;7.846;2023-11-18T05:43:52;1.97;;;1.77;;
30335;SDS011;17142;47.990;7.846;2023-11-18T05:46:21;1.63;;;1.53;;
30335;SDS011;17142;47.990;7.846;2023-11-18T05:48:50;6.83;;;1.37;;
30335;SDS011;17142;47.990;7.846;2023-11-18T05:51:22;1.50;;;1.40;;
30335;SDS011;17142;47.990;7.846;2023-11-18T05:53:50;1.87;;;1.77;;
30335;SDS011;17142;47.990;7.846;2023-11-18T05:56:17;2.40;;;1.73;;
30335;SDS011;17142;47.990;7.846;2023-11-18T05:58:47;2.40;;;2.13;;
30335;SDS011;17142;47.990;7.846;2023-11-18T06:01:15;2.33;;;1.77;;
30335;SDS011;17142;47.990;7.846;2023-11-18T06:03:42;2.40;;;2.00;;
30335;SDS011;17142;47.990;7.846;2023-11-18T06:06:08;2.37;;;2.00;;
30335;SDS011;17142;47.990;7.846;2023-11-18T06:08:38;2.20;;;2.07;;
30335;SDS011;17142;47.990;7.846;2023-11-18T06:11:06;2.83;;;1.20;;
30335;SDS011;17142;47.990;7.846;2023-11-18T06:13:59;3.97;;;1.47;;
30335;SDS011;17142;47.990;7.846;2023-11-18T06:16:24;5.60;;;2.43;;
30335;SDS011;17142;47.990;7.846;2023-11-18T06:18:51;2.43;;;2.23;;
30335;SDS011;17142;47.990;7.846;2023-11-18T06:21:22;2.17;;;1.97;;
30335;SDS011;17142;47.990;7.846;2023-11-18T06:23:58;2.50;;;1.40;;
30335;SDS011;17142;47.990;7.846;2023-11-18T06:26:29;2.23;;;1.53;;
30335;SDS011;17142;47.990;7.846;2023-11-18T06:28:54;1.00;;;1.00;;
30335;SDS011;17142;47.990;7.846;2023-11-18T06:31:21;0.53;;;0.50;;
30335;SDS011;17142;47.990;7.846;2023-11-18T06:33:48;1.33;;;1.23;;
30335;SDS011;17142;47.990;7.846;2023-11-18T06:38:43;1.30;;;1.30;;
30335;SDS011;17142;47.990;7.846;2023-11-18T06:41:16;2.20;;;1.97;;
30335;SDS011;17142;47.990;7.846;2023-11-18T06:43:46;1.13;;;1.03;;
30335;SDS011;17142;47.990;7.846;2023-11-18T06:46:22;0.80;;;0.70;;
30335;SDS011;17142;47.990;7.846;2023-11-18T06:49:02;1.43;;;1.33;;
30335;SDS011;17142;47.990;7.846;2023-11-18T06:51:34;1.83;;;1.73;;
30335;SDS011;17142;47.990;7.846;2023-11-18T06:54:00;2.10;;;0.97;;
30335;SDS011;17142;47.990;7.846;2023-11-18T06:56:39;0.60;;;0.60;;
30335;SDS011;17142;47.990;7.846;2023-11-18T06:59:11;5.20;;;1.67;;
30335;SDS011;17142;47.990;7.846;2023-11-18T07:01:41;0.87;;;0.87;;
30335;SDS011;17142;47.990;7.846;2023-11-18T07:04:10;1.60;;;1.17;;
30335;SDS011;17142;47.990;7.846;2023-11-18T07:06:36;1.00;;;1.00;;
30335;SDS011;17142;47.990;7.846;2023-11-18T07:09:08;2.00;;;0.87;;
30335;SDS011;17142;47.990;7.846;2023-11-18T07:11:43;0.70;;;0.63;;
30335;SDS011;17142;47.990;7.846;2023-11-18T07:14:09;1.40;;;1.30;;
30335;SDS011;17142;47.990;7.846;2023-11-18T07:16:37;1.60;;;1.50;;
30335;SDS011;17142;47.990;7.846;2023-11-18T07:19:04;3.67;;;1.43;;
30335;SDS011;17142;47.990;7.846;2023-11-18T07:21:30;2.00;;;1.20;;
30335;SDS011;17142;47.990;7.846;2023-11-18T07:23:55;2.30;;;1.43;;
30335;SDS011;17142;47.990;7.846;2023-11-18T07:26:22;2.00;;;1.57;;
30335;SDS011;17142;47.990;7.846;2023-11-18T07:28:50;1.60;;;1.50;;
30335;SDS011;17142;47.990;7.846;2023-11-18T07:31:16;1.00;;;1.00;;
30335;SDS011;17142;47.990;7.846;2023-11-18T07:33:43;1.30;;;1.20;;
30335;SDS011;17142;47.990;7.846;2023-11-18T07:36:14;1.60;;;1.47;;
30335;SDS011;17142;47.990;7.846;2023-11-18T07:38:45;1.83;;;1.73;;
30335;SDS011;17142;47.990;7.846;2023-11-18T07:41:11;1.87;;;1.77;;
30335;SDS011;17142;47.990;7.846;2023-11-18T07:43:49;2.07;;;1.60;;
30335;SDS011;17142;47.990;7.846;2023-11-18T07:46:22;1.97;;;1.23;;
30335;SDS011;17142;47.990;7.846;2023-11-18T07:48:49;1.80;;;1.70;;
30335;SDS011;17142;47.990;7.846;2023-11-18T07:51:17;1.60;;;1.50;;
30335;SDS011;17142;47.990;7.846;2023-11-18T07:53:48;2.10;;;1.83;;
30335;SDS011;17142;47.990;7.846;2023-11-18T07:56:17;1.60;;;1.50;;
30335;SDS011;17142;47.990;7.846;2023-11-18T07:58:43;2.30;;;1.97;;
30335;SDS011;17142;47.990;7.846;2023-11-18T08:01:12;0.80;;;0.80;;
30335;SDS011;17142;47.990;7.846;2023-11-18T08:03:41;1.50;;;1.40;;
30335;SDS011;17142;47.990;7.846;2023-11-18T08:06:07;1.33;;;1.23;;
30335;SDS011;17142;47.990;7.846;2023-11-18T08:08:33;3.33;;;2.30;;
30335;SDS011;17142;47.990;7.846;2023-11-18T08:11:02;1.30;;;1.10;;
30335;SDS011;17142;47.990;7.846;2023-11-18T08:13:30;2.03;;;1.83;;
30335;SDS011;17142;47.990;7.846;2023-11-18T08:15:59;3.60;;;1.93;;
30335;SDS011;17142;47.990;7.846;2023-11-18T08:18:26;1.93;;;1.73;;
30335;SDS011;17142;47.990;7.846;2023-11-18T08:20:56;3.33;;;1.60;;
30335;SDS011;17142;47.990;7.846;2023-11-18T08:23:22;3.70;;;2.13;;
30335;SDS011;17142;47.990;7.846;2023-11-18T08:25:48;1.60;;;1.50;;
30335;SDS011;17142;47.990;7.846;2023-11-18T08:28:16;2.20;;;1.80;;
30335;SDS011;17142;47.990;7.846;2023-11-18T08:30:41;3.20;;;2.20;;
30335;SDS011;17142;47.990;7.846;2023-11-18T08:33:07;4.70;;;2.33;;
30335;SDS011;17142;47.990;7.846;2023-11-18T08:35:36;4.90;;;2.53;;
30335;SDS011;17142;47.990;7.846;2023-11-18T08:38:02;3.13;;;2.07;;
30335;SDS011;17142;47.990;7.846;2023-11-18T08:40:29;2.20;;;1.23;;
30335;SDS011;17142;47.990;7.846;2023-11-18T08:42:55;1.17;;;1.07;;
30335;SDS011;17142;47.990;7.846;2023-11-18T08:45:24;2.00;;;1.67;;
30335;SDS011;17142;47.990;7.846;2023-11-18T08:47:55;2.60;;;1.80;;
30335;SDS011;17142;47.990;7.846;2023-11-18T08:50:24;1.73;;;1.63;;
30335;SDS011;17142;47.990;7.846;2023-11-18T08:52:51;3.23;;;2.17;;
30335;SDS011;17142;47.990;7.846;2023-11-18T08:55:29;1.77;;;1.67;;
30335;SDS011;17142;47.990;7.846;2023-11-18T08:57:59;1.03;;;1.03;;
30335;SDS011;17142;47.990;7.846;2023-11-18T09:00:28;2.10;;;1.47;;
30335;SDS011;17142;47.990;7.846;2023-11-18T09:03:23;0.77;;;0.63;;
30335;SDS011;17142;47.990;7.846;2023-11-18T09:05:56;3.17;;;1.20;;
30335;SDS011;17142;47.990;7.846;2023-11-18T09:08:23;16.20;;;2.10;;
30335;SDS011;17142;47.990;7.846;2023-11-18T09:10:52;2.07;;;1.20;;
30335;SDS011;17142;47.990;7.846;2023-11-18T09:13:22;2.10;;;1.67;;
30335;SDS011;17142;47.990;7.846;2023-11-18T09:15:55;1.33;;;1.23;;
30335;SDS011;17142;47.990;7.846;2023-11-18T09:18:28;3.07;;;1.70;;
30335;SDS011;17142;47.990;7.846;2023-11-18T09:20:58;0.77;;;0.73;;
30335;SDS011;17142;47.990;7.846;2023-11-18T09:23:26;2.17;;;1.97;;
30335;SDS011;17142;47.990;7.846;2023-11-18T09:25:52;2.03;;;1.50;;
30335;SDS011;17142;47.990;7.846;2023-11-18T09:28:19;4.07;;;2.43;;
30335;SDS011;17142;47.990;7.846;2023-11-18T09:30:45;2.57;;;2.23;;
30335;SDS011;17142;47.990;7.846;2023-11-18T09:33:16;3.63;;;2.23;;
30335;SDS011;17142;47.990;7.846;2023-11-18T09:35:50;3.40;;;2.10;;
30335;SDS011;17142;47.990;7.846;2023-11-18T09:38:40;4.40;;;1.83;;
30335;SDS011;17142;47.990;7.846;2023-11-18T09:41:11;2.40;;;2.10;;
30335;SDS011;17142;47.990;7.846;2023-11-18T09:43:44;3.87;;;2.53;;
30335;SDS011;17142;47.990;7.846;2023-11-18T09:46:20;5.20;;;2.63;;
30335;SDS011;17142;47.990;7.846;2023-11-18T09:48:52;3.20;;;2.20;;
30335;SDS011;17142;47.990;7.846;2023-11-18T09:51:42;3.93;;;1.70;;
30335;SDS011;17142;47.990;7.846;2023-11-18T09:54:16;2.90;;;1.67;;
30335;SDS011;17142;47.990;7.846;2023-11-18T09:57:03;2.60;;;1.73;;
30335;SDS011;17142;47.990;7.846;2023-11-18T10:02:39;2.70;;;1.70;;
30335;SDS011;17142;47.990;7.846;2023-11-18T10:05:05;2.53;;;1.90;;
30335;SDS011;17142;47.990;7.846;2023-11-18T10:07:39;1.67;;;1.47;;
30335;SDS011;17142;47.990;7.846;2023-11-18T10:10:07;2.90;;;2.10;;
30335;SDS011;17142;47.990;7.846;2023-11-18T10:12:42;2.70;;;2.10;;
30335;SDS011;17142;47.990;7.846;2023-11-18T10:15:20;2.20;;;2.00;;
30335;SDS011;17142;47.990;7.846;2023-11-18T10:17:50;3.63;;;2.27;;
30335;SDS011;17142;47.990;7.846;2023-11-18T10:23:08;4.40;;;2.57;;
30335;SDS011;17142;47.990;7.846;2023-11-18T10:25:41;2.73;;;2.20;;
30335;SDS011;17142;47.990;7.846;2023-11-18T10:28:21;3.33;;;2.53;;
30335;SDS011;17142;47.990;7.846;2023-11-18T10:30:54;1.73;;;1.63;;
30335;SDS011;17142;47.990;7.846;2023-11-18T10:33:23;2.23;;;1.80;;
30335;SDS011;17142;47.990;7.846;2023-11-18T10:35:55;4.40;;;2.57;;
30335;SDS011;17142;47.990;7.846;2023-11-18T10:38:24;2.27;;;2.07;;
30335;SDS011;17142;47.990;7.846;2023-11-18T10:40:54;5.30;;;2.50;;
30335;SDS011;17142;47.990;7.846;2023-11-18T10:43:22;2.80;;;1.90;;
30335;SDS011;17142;47.990;7.846;2023-11-18T10:45:51;3.27;;;2.33;;
30335;SDS011;17142;47.990;7.846;2023-11-18T10:48:22;5.57;;;2.73;;
30335;SDS011;17142;47.990;7.846;2023-11-18T10:50:49;3.17;;;1.83;;
30335;SDS011;17142;47.990;7.846;2023-11-18T10:53:18;4.10;;;2.27;;
30335;SDS011;17142;47.990;7.846;2023-11-18T10:55:44;5.40;;;2.67;;
30335;SDS011;17142;47.990;7.846;2023-11-18T10:58:12;3.20;;;2.30;;
30335;SDS011;17142;47.990;7.846;2023-11-18T11:00:49;4.27;;;2.90;;
30335;SDS011;17142;47.990;7.846;2023-11-18T11:03:25;5.80;;;2.67;;
30335;SDS011;17142;47.990;7.846;2023-11-18T11:05:51;3.63;;;2.30;;
30335;SDS011;17142;47.990;7.846;2023-11-18T11:08:19;3.07;;;1.97;;
30335;SDS011;17142;47.990;7.846;2023-11-18T11:10:50;5.07;;;2.73;;
30335;SDS011;17142;47.990;7.846;2023-11-18T11:13:17;2.80;;;2.10;;
30335;SDS011;17142;47.990;7.846;2023-11-18T11:15:44;3.00;;;2.00;;
30335;SDS011;17142;47.990;7.846;2023-11-18T11:18:15;6.60;;;3.10;;
30335;SDS011;17142;47.990;7.846;2023-11-18T11:20:57;2.67;;;2.40;;
30335;SDS011;17142;47.990;7.846;2023-11-18T11:26:40;7.03;;;2.67;;
30335;SDS011;17142;47.990;7.846;2023-11-18T11:29:12;8.10;;;3.63;;
30335;SDS011;17142;47.990;7.846;2023-11-18T11:31:50;3.40;;;2.63;;
30335;SDS011;17142;47.990;7.846;2023-11-18T11:34:24;5.57;;;3.17;;
30335;SDS011;17142;47.990;7.846;2023-11-18T11:36:54;3.17;;;2.70;;
30335;SDS011;17142;47.990;7.846;2023-11-18T11:39:24;2.40;;;2.20;;
30335;SDS011;17142;47.990;7.846;2023-11-18T11:41:55;4.03;;;2.47;;
30335;SDS011;17142;47.990;7.846;2023-11-18T11:44:22;6.13;;;2.80;;
30335;SDS011;17142;47.990;7.846;2023-11-18T11:46:54;3.03;;;2.73;;
30335;SDS011;17142;47.990;7.846;2023-11-18T11:49:28;3.93;;;3.00;;
30335;SDS011;17142;47.990;7.846;2023-11-18T11:54:42;4.07;;;3.10;;
30335;SDS011;17142;47.990;7.846;2023-11-18T11:57:14;5.63;;;2.97;;
30335;SDS011;17142;47.990;7.846;2023-11-18T12:02:13;4.77;;;3.80;;
30335;SDS011;17142;47.990;7.846;2023-11-18T12:04:44;7.43;;;4.87;;
30335;SDS011;17142;47.990;7.846;2023-11-18T12:07:17;7.70;;;4.10;;
30335;SDS011;17142;47.990;7.846;2023-11-18T12:09:55;5.70;;;4.73;;
30335;SDS011;17142;47.990;7.846;2023-11-18T12:12:31;5.10;;;4.37;;
30335;SDS011;17142;47.990;7.846;2023-11-18T12:14:59;5.67;;;4.40;;
30335;SDS011;17142;47.990;7.846;2023-11-18T12:23:12;4.20;;;3.60;;
30335;SDS011;17142;47.990;7.846;2023-11-18T12:25:45;9.60;;;3.60;;
30335;SDS011;17142;47.990;7.846;2023-11-18T12:28:17;5.37;;;3.77;;
30335;SDS011;17142;47.990;7.846;2023-11-18T12:30:49;3.53;;;2.70;;
30335;SDS011;17142;47.990;7.846;2023-11-18T12:33:21;8.20;;;2.90;;
30335;SDS011;17142;47.990;7.846;2023-11-18T12:36:19;6.43;;;3.47;;
30335;SDS011;17142;47.990;7.846;2023-11-18T12:39:27;5.33;;;2.90;;
30335;SDS011;17142;47.990;7.846;2023-11-18T12:42:05;4.00;;;2.83;;
30335;SDS011;17142;47.990;7.846;2023-11-18T12:47:23;8.77;;;2.73;;
30335;SDS011;17142;47.990;7.846;2023-11-18T12:49:55;2.63;;;2.40;;
30335;SDS011;17142;47.990;7.846;2023-11-18T12:52:21;7.20;;;2.97;;
30335;SDS011;17142;47.990;7.846;2023-11-18T12:54:48;6.07;;;3.37;;
30335;SDS011;17142;47.990;7.846;2023-11-18T12:57:19;5.20;;;3.17;;
30335;SDS011;17142;47.990;7.846;2023-11-18T12:59:48;6.20;;;3.63;;
30335;SDS011;17142;47.990;7.846;2023-11-18T13:02:15;6.90;;;4.40;;
30335;SDS011;17142;47.990;7.846;2023-11-18T13:04:44;9.10;;;3.70;;
30335;SDS011;17142;47.990;7.846;2023-11-18T13:07:12;8.03;;;5.77;;
30335;SDS011;17142;47.990;7.846;2023-11-18T13:09:39;5.10;;;4.60;;
30335;SDS011;17142;47.990;7.846;2023-11-18T13:12:08;4.30;;;3.90;;
30335;SDS011;17142;47.990;7.846;2023-11-18T13:14:34;6.23;;;5.07;;
30335;SDS011;17142;47.990;7.846;2023-11-18T13:17:08;5.90;;;3.90;;
30335;SDS011;17142;47.990;7.846;2023-11-18T13:19:36;5.37;;;4.07;;
30335;SDS011;17142;47.990;7.846;2023-11-18T13:22:06;5.80;;;5.00;;
30335;SDS011;17142;47.990;7.846;2023-11-18T13:24:37;5.30;;;4.80;;
30335;SDS011;17142;47.990;7.846;2023-11-18T13:27:10;5.63;;;3.60;;
30335;SDS011;17142;47.990;7.846;2023-11-18T13:29:43;5.73;;;4.50;;
30335;SDS011;17142;47.990;7.846;2023-11-18T13:32:16;6.30;;;3.20;;
30335;SDS011;17142;47.990;7.846;2023-11-18T13:34:42;7.43;;;2.87;;
30335;SDS011;17142;47.990;7.846;2023-11-18T13:37:08;3.03;;;2.47;;
30335;SDS011;17142;47.990;7.846;2023-11-18T13:39:37;3.97;;;3.30;;
30335;SDS011;17142;47.990;7.846;2023-11-18T13:42:19;4.77;;;3.23;;
30335;SDS011;17142;47.990;7.846;2023-11-18T13:44:53;8.23;;;3.00;;
30335;SDS011;17142;47.990;7.846;2023-11-18T13:47:21;4.17;;;2.40;;
30335;SDS011;17142;47.990;7.846;2023-11-18T13:49:50;2.60;;;2.40;;
30335;SDS011;17142;47.990;7.846;2023-11-18T13:52:18;3.43;;;2.30;;
30335;SDS011;17142;47.990;7.846;2023-11-18T13:54:44;3.20;;;2.53;;
30335;SDS011;17142;47.990;7.846;2023-11-18T13:57:11;7.03;;;3.90;;
30335;SDS011;17142;47.990;7.846;2023-11-18T13:59:37;4.17;;;2.47;;
30335;SDS011;17142;47.990;7.846;2023-11-18T14:02:09;2.80;;;2.50;;
30335;SDS011;17142;47.990;7.846;2023-11-18T14:04:39;4.70;;;2.30;;
30335;SDS011;17142;47.990;7.846;2023-11-18T14:07:07;2.70;;;1.53;;
30335;SDS011;17142;47.990;7.846;2023-11-18T14:09:34;3.40;;;2.00;;
30335;SDS011;17142;47.990;7.846;2023-11-18T14:12:01;2.20;;;1.70;;
30335;SDS011;17142;47.990;7.846;2023-11-18T14:14:29;4.83;;;2.20;;
30335;SDS011;17142;47.990;7.846;2023-11-18T14:16:55;3.50;;;2.00;;
30335;SDS011;17142;47.990;7.846;2023-11-18T14:19:23;2.10;;;1.90;;
30335;SDS011;17142;47.990;7.846;2023-11-18T14:21:50;3.83;;;2.47;;
30335;SDS011;17142;47.990;7.846;2023-11-18T14:24:18;7.47;;;4.20;;
30335;SDS011;17142;47.990;7.846;2023-11-18T14:26:45;2.30;;;1.90;;
30335;SDS011;17142;47.990;7.846;2023-11-18T14:29:13;3.67;;;1.53;;
30335;SDS011;17142;47.990;7.846;2023-11-18T14:31:40;5.50;;;1.60;;
30335;SDS011;17142;47.990;7.846;2023-11-18T14:34:06;3.23;;;1.47;;
30335;SDS011;17142;47.990;7.846;2023-11-18T14:36:35;1.80;;;1.47;;
30335;SDS011;17142;47.990;7.846;2023-11-18T14:39:05;3.43;;;2.30;;
30335;SDS011;17142;47.990;7.846;2023-11-18T14:41:37;3.70;;;1.63;;
30335;SDS011;17142;47.990;7.846;2023-11-18T14:44:02;2.30;;;1.47;;
30335;SDS011;17142;47.990;7.846;2023-11-18T14:46:32;1.47;;;1.20;;
30335;SDS011;17142;47.990;7.846;2023-11-18T14:48:58;3.00;;;1.40;;
30335;SDS011;17142;47.990;7.846;2023-11-18T14:51:24;1.43;;;0.90;;
30335;SDS011;17142;47.990;7.846;2023-11-18T14:53:50;2.20;;;1.73;;
30335;SDS011;17142;47.990;7.846;2023-11-18T14:56:19;2.67;;;1.20;;
30335;SDS011;17142;47.990;7.846;2023-11-18T14:58:44;1.57;;;1.43;;
30335;SDS011;17142;47.990;7.846;2023-11-18T15:01:14;3.27;;;1.40;;
30335;SDS011;17142;47.990;7.846;2023-11-18T15:03:40;3.63;;;1.30;;
30335;SDS011;17142;47.990;7.846;2023-11-18T15:06:06;2.93;;;1.50;;
30335;SDS011;17142;47.990;7.846;2023-11-18T15:08:32;2.40;;;1.60;;
30335;SDS011;17142;47.990;7.846;2023-11-18T15:10:58;1.80;;;1.53;;
30335;SDS011;17142;47.990;7.846;2023-11-18T15:13:24;2.40;;;1.40;;
30335;SDS011;17142;47.990;7.846;2023-11-18T15:15:52;2.40;;;1.90;;
30335;SDS011;17142;47.990;7.846;2023-11-18T15:18:18;4.30;;;2.20;;
30335;SDS011;17142;47.990;7.846;2023-11-18T15:20:44;4.13;;;2.20;;
30335;SDS011;17142;47.990;7.846;2023-11-18T15:23:10;4.10;;;2.23;;
30335;SDS011;17142;47.990;7.846;2023-11-18T15:25:37;4.63;;;2.37;;
30335;SDS011;17142;47.990;7.846;2023-11-18T15:28:04;2.07;;;1.87;;